Aviation Digital Data Service (ADDS)

Output produced by METARs form (1007 UTC 23 October 2017)
found at http://aviationweather.gov/adds/metars/
 
KSWF 230833Z 2309/2412 VRB02KT P6SM SCT008 BKN030 
     FM231300 14004KT P6SM SCT008 BKN035 
     FM231900 15009KT P6SM SCT008 BKN030 
     FM240000 16012KT 6SM -DZ BR SCT008 BKN025 
     FM240400 16014G20KT 5SM SHRA BR SCT008 BKN015 AMD NOT SKED